sensor_id;sensor_type;location;lat;lon;timestamp;P1;durP1;ratioP1;P2;durP2;ratioP2
15595;SDS011;7898;48.658;9.068;2022-10-16T00:01:32;5.82;;;2.35;;
15595;SDS011;7898;48.658;9.068;2022-10-16T00:03:59;3.35;;;2.70;;
15595;SDS011;7898;48.658;9.068;2022-10-16T00:06:27;6.85;;;2.28;;
15595;SDS011;7898;48.658;9.068;2022-10-16T00:08:56;6.68;;;2.45;;
15595;SDS011;7898;48.658;9.068;2022-10-16T00:11:24;2.20;;;2.00;;
15595;SDS011;7898;48.658;9.068;2022-10-16T00:13:54;3.67;;;2.25;;
15595;SDS011;7898;48.658;9.068;2022-10-16T00:16:23;3.00;;;2.33;;
15595;SDS011;7898;48.658;9.068;2022-10-16T00:18:51;6.15;;;2.42;;
15595;SDS011;7898;48.658;9.068;2022-10-16T00:21:19;4.65;;;2.60;;
15595;SDS011;7898;48.658;9.068;2022-10-16T00:23:49;6.13;;;2.42;;
15595;SDS011;7898;48.658;9.068;2022-10-16T00:26:18;4.20;;;2.40;;
15595;SDS011;7898;48.658;9.068;2022-10-16T00:28:45;4.65;;;2.40;;
15595;SDS011;7898;48.658;9.068;2022-10-16T00:31:13;5.10;;;2.30;;
15595;SDS011;7898;48.658;9.068;2022-10-16T00:33:41;2.53;;;2.33;;
15595;SDS011;7898;48.658;9.068;2022-10-16T00:36:10;4.57;;;2.45;;
15595;SDS011;7898;48.658;9.068;2022-10-16T00:38:39;6.43;;;2.75;;
15595;SDS011;7898;48.658;9.068;2022-10-16T00:41:06;5.93;;;2.30;;
15595;SDS011;7898;48.658;9.068;2022-10-16T00:43:36;3.45;;;2.38;;
15595;SDS011;7898;48.658;9.068;2022-10-16T00:46:08;4.35;;;3.05;;
15595;SDS011;7898;48.658;9.068;2022-10-16T00:48:41;3.33;;;2.33;;
15595;SDS011;7898;48.658;9.068;2022-10-16T00:51:11;5.97;;;2.58;;
15595;SDS011;7898;48.658;9.068;2022-10-16T00:53:38;5.50;;;2.50;;
15595;SDS011;7898;48.658;9.068;2022-10-16T00:56:06;2.95;;;2.65;;
15595;SDS011;7898;48.658;9.068;2022-10-16T00:58:33;2.92;;;2.60;;
15595;SDS011;7898;48.658;9.068;2022-10-16T01:01:03;2.80;;;2.53;;
15595;SDS011;7898;48.658;9.068;2022-10-16T01:03:31;3.38;;;2.50;;
15595;SDS011;7898;48.658;9.068;2022-10-16T01:06:06;5.05;;;2.60;;
15595;SDS011;7898;48.658;9.068;2022-10-16T01:08:48;3.97;;;2.33;;
15595;SDS011;7898;48.658;9.068;2022-10-16T01:11:44;7.25;;;2.70;;
15595;SDS011;7898;48.658;9.068;2022-10-16T01:14:21;6.88;;;2.65;;
15595;SDS011;7898;48.658;9.068;2022-10-16T01:16:53;6.13;;;2.83;;
15595;SDS011;7898;48.658;9.068;2022-10-16T01:19:28;6.28;;;2.90;;
15595;SDS011;7898;48.658;9.068;2022-10-16T01:22:07;4.78;;;2.53;;
15595;SDS011;7898;48.658;9.068;2022-10-16T01:24:37;6.95;;;2.70;;
15595;SDS011;7898;48.658;9.068;2022-10-16T01:27:11;4.38;;;2.83;;
15595;SDS011;7898;48.658;9.068;2022-10-16T01:29:41;3.92;;;2.50;;
15595;SDS011;7898;48.658;9.068;2022-10-16T01:32:16;7.03;;;2.42;;
15595;SDS011;7898;48.658;9.068;2022-10-16T01:34:49;3.38;;;2.53;;
15595;SDS011;7898;48.658;9.068;2022-10-16T01:37:22;3.60;;;2.92;;
15595;SDS011;7898;48.658;9.068;2022-10-16T01:39:55;6.05;;;2.42;;
15595;SDS011;7898;48.658;9.068;2022-10-16T01:42:29;2.75;;;2.35;;
15595;SDS011;7898;48.658;9.068;2022-10-16T01:45:01;3.28;;;2.85;;
15595;SDS011;7898;48.658;9.068;2022-10-16T01:47:32;5.97;;;2.90;;
15595;SDS011;7898;48.658;9.068;2022-10-16T01:50:01;6.15;;;2.60;;
15595;SDS011;7898;48.658;9.068;2022-10-16T01:52:30;5.82;;;2.75;;
15595;SDS011;7898;48.658;9.068;2022-10-16T01:55:00;3.75;;;2.40;;
15595;SDS011;7898;48.658;9.068;2022-10-16T01:57:31;3.45;;;2.40;;
15595;SDS011;7898;48.658;9.068;2022-10-16T02:00:02;4.85;;;2.30;;
15595;SDS011;7898;48.658;9.068;2022-10-16T02:02:33;5.10;;;2.30;;
15595;SDS011;7898;48.658;9.068;2022-10-16T02:05:02;4.13;;;2.45;;
15595;SDS011;7898;48.658;9.068;2022-10-16T02:07:35;4.20;;;2.30;;
15595;SDS011;7898;48.658;9.068;2022-10-16T02:10:03;5.13;;;2.60;;
15595;SDS011;7898;48.658;9.068;2022-10-16T02:12:32;6.95;;;2.45;;
15595;SDS011;7898;48.658;9.068;2022-10-16T02:15:02;7.97;;;2.55;;
15595;SDS011;7898;48.658;9.068;2022-10-16T02:17:29;4.57;;;2.30;;
15595;SDS011;7898;48.658;9.068;2022-10-16T02:19:56;2.78;;;2.33;;
15595;SDS011;7898;48.658;9.068;2022-10-16T02:22:26;5.00;;;2.22;;
15595;SDS011;7898;48.658;9.068;2022-10-16T02:24:56;6.93;;;2.10;;
15595;SDS011;7898;48.658;9.068;2022-10-16T02:27:26;4.47;;;2.28;;
15595;SDS011;7898;48.658;9.068;2022-10-16T02:29:59;2.70;;;2.30;;
15595;SDS011;7898;48.658;9.068;2022-10-16T02:32:37;3.35;;;2.10;;
15595;SDS011;7898;48.658;9.068;2022-10-16T02:35:07;4.50;;;2.15;;
15595;SDS011;7898;48.658;9.068;2022-10-16T02:37:35;4.10;;;2.45;;
15595;SDS011;7898;48.658;9.068;2022-10-16T02:40:05;3.50;;;2.47;;
15595;SDS011;7898;48.658;9.068;2022-10-16T02:42:33;4.72;;;2.47;;
15595;SDS011;7898;48.658;9.068;2022-10-16T02:45:02;2.83;;;2.25;;
15595;SDS011;7898;48.658;9.068;2022-10-16T02:47:30;4.20;;;2.50;;
15595;SDS011;7898;48.658;9.068;2022-10-16T02:49:57;4.13;;;2.72;;
15595;SDS011;7898;48.658;9.068;2022-10-16T02:52:24;3.97;;;2.95;;
15595;SDS011;7898;48.658;9.068;2022-10-16T02:54:51;4.50;;;3.00;;
15595;SDS011;7898;48.658;9.068;2022-10-16T02:57:18;6.00;;;3.05;;
15595;SDS011;7898;48.658;9.068;2022-10-16T02:59:45;3.20;;;2.35;;
15595;SDS011;7898;48.658;9.068;2022-10-16T03:02:13;5.50;;;2.20;;
15595;SDS011;7898;48.658;9.068;2022-10-16T03:04:40;4.32;;;2.15;;
15595;SDS011;7898;48.658;9.068;2022-10-16T03:07:07;2.78;;;2.17;;
15595;SDS011;7898;48.658;9.068;2022-10-16T03:09:37;3.53;;;2.30;;
15595;SDS011;7898;48.658;9.068;2022-10-16T03:12:04;5.32;;;2.15;;
15595;SDS011;7898;48.658;9.068;2022-10-16T03:14:31;3.17;;;2.40;;
15595;SDS011;7898;48.658;9.068;2022-10-16T03:16:58;3.13;;;2.33;;
15595;SDS011;7898;48.658;9.068;2022-10-16T03:19:26;5.07;;;2.30;;
15595;SDS011;7898;48.658;9.068;2022-10-16T03:21:53;3.42;;;2.75;;
15595;SDS011;7898;48.658;9.068;2022-10-16T03:24:20;2.67;;;2.30;;
15595;SDS011;7898;48.658;9.068;2022-10-16T03:26:47;4.20;;;2.20;;
15595;SDS011;7898;48.658;9.068;2022-10-16T03:29:14;8.88;;;3.05;;
15595;SDS011;7898;48.658;9.068;2022-10-16T03:31:41;3.28;;;2.35;;
15595;SDS011;7898;48.658;9.068;2022-10-16T03:34:08;3.63;;;2.42;;
15595;SDS011;7898;48.658;9.068;2022-10-16T03:36:37;3.67;;;2.40;;
15595;SDS011;7898;48.658;9.068;2022-10-16T03:39:04;6.03;;;3.08;;
15595;SDS011;7898;48.658;9.068;2022-10-16T03:41:31;3.20;;;2.38;;
15595;SDS011;7898;48.658;9.068;2022-10-16T03:43:58;7.38;;;2.75;;
15595;SDS011;7898;48.658;9.068;2022-10-16T03:46:24;5.13;;;2.47;;
15595;SDS011;7898;48.658;9.068;2022-10-16T03:48:52;4.07;;;2.53;;
15595;SDS011;7898;48.658;9.068;2022-10-16T03:51:19;5.60;;;2.35;;
15595;SDS011;7898;48.658;9.068;2022-10-16T03:53:47;2.63;;;2.42;;
15595;SDS011;7898;48.658;9.068;2022-10-16T03:56:14;3.33;;;2.58;;
15595;SDS011;7898;48.658;9.068;2022-10-16T03:58:41;8.07;;;3.10;;
15595;SDS011;7898;48.658;9.068;2022-10-16T04:01:08;2.63;;;2.30;;
15595;SDS011;7898;48.658;9.068;2022-10-16T04:03:35;8.52;;;2.20;;
15595;SDS011;7898;48.658;9.068;2022-10-16T04:06:02;3.78;;;2.67;;
15595;SDS011;7898;48.658;9.068;2022-10-16T04:08:29;3.47;;;2.50;;
15595;SDS011;7898;48.658;9.068;2022-10-16T04:11:00;3.17;;;2.65;;
15595;SDS011;7898;48.658;9.068;2022-10-16T04:13:27;7.20;;;2.80;;
15595;SDS011;7898;48.658;9.068;2022-10-16T04:15:54;3.60;;;2.72;;
15595;SDS011;7898;48.658;9.068;2022-10-16T04:18:21;7.15;;;3.47;;
15595;SDS011;7898;48.658;9.068;2022-10-16T04:20:48;4.30;;;2.78;;
15595;SDS011;7898;48.658;9.068;2022-10-16T04:23:15;3.55;;;2.95;;
15595;SDS011;7898;48.658;9.068;2022-10-16T04:25:42;3.85;;;3.03;;
15595;SDS011;7898;48.658;9.068;2022-10-16T04:28:10;5.25;;;2.95;;
15595;SDS011;7898;48.658;9.068;2022-10-16T04:30:38;4.60;;;2.50;;
15595;SDS011;7898;48.658;9.068;2022-10-16T04:33:07;5.78;;;2.63;;
15595;SDS011;7898;48.658;9.068;2022-10-16T04:35:35;9.10;;;2.92;;
15595;SDS011;7898;48.658;9.068;2022-10-16T04:38:02;6.28;;;2.45;;
15595;SDS011;7898;48.658;9.068;2022-10-16T04:40:29;5.30;;;2.70;;
15595;SDS011;7898;48.658;9.068;2022-10-16T04:42:57;5.60;;;2.83;;
15595;SDS011;7898;48.658;9.068;2022-10-16T04:45:26;6.95;;;2.67;;
15595;SDS011;7898;48.658;9.068;2022-10-16T04:47:56;3.25;;;2.67;;
15595;SDS011;7898;48.658;9.068;2022-10-16T04:50:23;6.15;;;2.63;;
15595;SDS011;7898;48.658;9.068;2022-10-16T04:52:52;3.08;;;2.78;;
15595;SDS011;7898;48.658;9.068;2022-10-16T04:55:19;2.38;;;2.17;;
15595;SDS011;7898;48.658;9.068;2022-10-16T04:57:46;4.88;;;2.40;;
15595;SDS011;7898;48.658;9.068;2022-10-16T05:00:13;4.53;;;2.60;;
15595;SDS011;7898;48.658;9.068;2022-10-16T05:02:42;5.85;;;3.65;;
15595;SDS011;7898;48.658;9.068;2022-10-16T05:05:09;10.55;;;5.00;;
15595;SDS011;7898;48.658;9.068;2022-10-16T05:07:36;8.95;;;6.13;;
15595;SDS011;7898;48.658;9.068;2022-10-16T05:10:04;9.30;;;5.93;;
15595;SDS011;7898;48.658;9.068;2022-10-16T05:12:31;9.27;;;7.00;;
15595;SDS011;7898;48.658;9.068;2022-10-16T05:14:58;8.55;;;3.97;;
15595;SDS011;7898;48.658;9.068;2022-10-16T05:17:25;9.02;;;2.88;;
15595;SDS011;7898;48.658;9.068;2022-10-16T05:19:55;3.42;;;2.60;;
15595;SDS011;7898;48.658;9.068;2022-10-16T05:22:22;9.55;;;2.50;;
15595;SDS011;7898;48.658;9.068;2022-10-16T05:24:49;4.88;;;2.28;;
15595;SDS011;7898;48.658;9.068;2022-10-16T05:27:16;3.70;;;2.20;;
15595;SDS011;7898;48.658;9.068;2022-10-16T05:29:45;2.78;;;2.17;;
15595;SDS011;7898;48.658;9.068;2022-10-16T05:32:13;5.05;;;2.28;;
15595;SDS011;7898;48.658;9.068;2022-10-16T05:34:41;5.75;;;2.38;;
15595;SDS011;7898;48.658;9.068;2022-10-16T05:37:10;4.40;;;2.22;;
15595;SDS011;7898;48.658;9.068;2022-10-16T05:39:39;5.90;;;1.98;;
15595;SDS011;7898;48.658;9.068;2022-10-16T05:42:06;4.10;;;2.17;;
15595;SDS011;7898;48.658;9.068;2022-10-16T05:44:33;6.07;;;2.47;;
15595;SDS011;7898;48.658;9.068;2022-10-16T05:47:00;5.75;;;2.72;;
15595;SDS011;7898;48.658;9.068;2022-10-16T05:49:27;6.68;;;2.33;;
15595;SDS011;7898;48.658;9.068;2022-10-16T05:51:54;6.85;;;2.20;;
15595;SDS011;7898;48.658;9.068;2022-10-16T05:54:22;12.20;;;2.58;;
15595;SDS011;7898;48.658;9.068;2022-10-16T05:56:49;3.20;;;2.20;;
15595;SDS011;7898;48.658;9.068;2022-10-16T05:59:16;3.85;;;2.20;;
15595;SDS011;7898;48.658;9.068;2022-10-16T06:01:43;8.25;;;2.15;;
15595;SDS011;7898;48.658;9.068;2022-10-16T06:04:10;5.55;;;2.17;;
15595;SDS011;7898;48.658;9.068;2022-10-16T06:06:40;14.43;;;2.33;;
15595;SDS011;7898;48.658;9.068;2022-10-16T06:09:07;2.17;;;1.90;;
15595;SDS011;7898;48.658;9.068;2022-10-16T06:11:37;8.02;;;2.88;;
15595;SDS011;7898;48.658;9.068;2022-10-16T06:14:03;8.15;;;3.22;;
15595;SDS011;7898;48.658;9.068;2022-10-16T06:16:32;7.30;;;3.70;;
15595;SDS011;7898;48.658;9.068;2022-10-16T06:19:00;5.30;;;3.30;;
15595;SDS011;7898;48.658;9.068;2022-10-16T06:21:32;3.85;;;2.05;;
15595;SDS011;7898;48.658;9.068;2022-10-16T06:24:02;3.53;;;1.65;;
15595;SDS011;7898;48.658;9.068;2022-10-16T06:26:29;6.30;;;1.83;;
15595;SDS011;7898;48.658;9.068;2022-10-16T06:29:01;2.08;;;1.40;;
15595;SDS011;7898;48.658;9.068;2022-10-16T06:31:29;2.58;;;1.50;;
15595;SDS011;7898;48.658;9.068;2022-10-16T06:33:58;6.80;;;1.83;;
15595;SDS011;7898;48.658;9.068;2022-10-16T06:36:26;3.63;;;1.65;;
15595;SDS011;7898;48.658;9.068;2022-10-16T06:38:54;5.00;;;1.83;;
15595;SDS011;7898;48.658;9.068;2022-10-16T06:41:21;5.60;;;1.52;;
15595;SDS011;7898;48.658;9.068;2022-10-16T06:43:49;16.42;;;2.95;;
15595;SDS011;7898;48.658;9.068;2022-10-16T06:46:19;7.78;;;1.55;;
15595;SDS011;7898;48.658;9.068;2022-10-16T06:48:50;4.47;;;1.50;;
15595;SDS011;7898;48.658;9.068;2022-10-16T06:51:18;3.92;;;1.50;;
15595;SDS011;7898;48.658;9.068;2022-10-16T06:53:47;8.05;;;1.70;;
15595;SDS011;7898;48.658;9.068;2022-10-16T06:56:16;3.13;;;1.30;;
15595;SDS011;7898;48.658;9.068;2022-10-16T06:58:44;7.30;;;1.60;;
15595;SDS011;7898;48.658;9.068;2022-10-16T07:01:15;3.08;;;1.40;;
15595;SDS011;7898;48.658;9.068;2022-10-16T07:03:44;5.63;;;1.80;;
15595;SDS011;7898;48.658;9.068;2022-10-16T07:06:12;3.75;;;2.10;;
15595;SDS011;7898;48.658;9.068;2022-10-16T07:08:41;2.95;;;2.17;;
15595;SDS011;7898;48.658;9.068;2022-10-16T07:11:13;2.80;;;1.73;;
15595;SDS011;7898;48.658;9.068;2022-10-16T07:13:41;6.55;;;2.15;;
15595;SDS011;7898;48.658;9.068;2022-10-16T07:16:10;4.97;;;2.38;;
15595;SDS011;7898;48.658;9.068;2022-10-16T07:18:38;2.63;;;2.00;;
15595;SDS011;7898;48.658;9.068;2022-10-16T07:21:09;3.85;;;1.80;;
15595;SDS011;7898;48.658;9.068;2022-10-16T07:23:37;13.30;;;2.92;;
15595;SDS011;7898;48.658;9.068;2022-10-16T07:26:04;4.30;;;2.42;;
15595;SDS011;7898;48.658;9.068;2022-10-16T07:28:32;4.50;;;2.10;;
15595;SDS011;7898;48.658;9.068;2022-10-16T07:31:00;5.15;;;1.88;;
15595;SDS011;7898;48.658;9.068;2022-10-16T07:38:32;4.30;;;2.50;;
15595;SDS011;7898;48.658;9.068;2022-10-16T07:41:00;3.35;;;2.65;;
15595;SDS011;7898;48.658;9.068;2022-10-16T07:43:28;4.28;;;2.10;;
15595;SDS011;7898;48.658;9.068;2022-10-16T07:45:56;8.63;;;2.00;;
15595;SDS011;7898;48.658;9.068;2022-10-16T07:48:23;5.47;;;2.00;;
15595;SDS011;7898;48.658;9.068;2022-10-16T07:50:56;7.82;;;1.52;;
15595;SDS011;7898;48.658;9.068;2022-10-16T07:53:23;4.20;;;1.88;;
15595;SDS011;7898;48.658;9.068;2022-10-16T07:55:52;13.02;;;2.17;;
15595;SDS011;7898;48.658;9.068;2022-10-16T07:58:22;3.10;;;1.80;;
15595;SDS011;7898;48.658;9.068;2022-10-16T08:00:49;2.28;;;1.65;;
15595;SDS011;7898;48.658;9.068;2022-10-16T08:03:16;4.97;;;1.95;;
15595;SDS011;7898;48.658;9.068;2022-10-16T08:05:43;3.67;;;1.63;;
15595;SDS011;7898;48.658;9.068;2022-10-16T08:08:14;4.50;;;1.63;;
15595;SDS011;7898;48.658;9.068;2022-10-16T08:10:44;2.78;;;2.03;;
15595;SDS011;7898;48.658;9.068;2022-10-16T08:13:15;4.45;;;1.90;;
15595;SDS011;7898;48.658;9.068;2022-10-16T08:15:42;4.63;;;2.00;;
15595;SDS011;7898;48.658;9.068;2022-10-16T08:18:10;6.43;;;3.03;;
15595;SDS011;7898;48.658;9.068;2022-10-16T08:20:38;2.58;;;2.10;;
15595;SDS011;7898;48.658;9.068;2022-10-16T08:23:09;9.13;;;1.80;;
15595;SDS011;7898;48.658;9.068;2022-10-16T08:25:37;6.15;;;1.73;;
15595;SDS011;7898;48.658;9.068;2022-10-16T08:28:04;9.93;;;2.13;;
15595;SDS011;7898;48.658;9.068;2022-10-16T08:30:33;7.47;;;1.88;;
15595;SDS011;7898;48.658;9.068;2022-10-16T08:33:01;3.67;;;1.90;;
15595;SDS011;7898;48.658;9.068;2022-10-16T08:35:28;4.43;;;3.00;;
15595;SDS011;7898;48.658;9.068;2022-10-16T08:37:55;3.25;;;2.70;;
15595;SDS011;7898;48.658;9.068;2022-10-16T08:40:24;6.80;;;3.58;;
15595;SDS011;7898;48.658;9.068;2022-10-16T08:42:56;5.60;;;2.63;;
15595;SDS011;7898;48.658;9.068;2022-10-16T08:45:51;6.38;;;3.05;;
15595;SDS011;7898;48.658;9.068;2022-10-16T08:48:35;7.13;;;3.88;;
15595;SDS011;7898;48.658;9.068;2022-10-16T08:51:09;9.02;;;2.67;;
15595;SDS011;7898;48.658;9.068;2022-10-16T08:53:44;5.90;;;2.45;;
15595;SDS011;7898;48.658;9.068;2022-10-16T08:56:16;7.03;;;2.72;;
15595;SDS011;7898;48.658;9.068;2022-10-16T08:58:44;4.05;;;2.65;;
15595;SDS011;7898;48.658;9.068;2022-10-16T09:01:14;7.53;;;2.60;;
15595;SDS011;7898;48.658;9.068;2022-10-16T09:03:48;4.15;;;2.40;;
15595;SDS011;7898;48.658;9.068;2022-10-16T09:06:29;2.30;;;2.05;;
15595;SDS011;7898;48.658;9.068;2022-10-16T09:09:08;1.77;;;1.48;;
15595;SDS011;7898;48.658;9.068;2022-10-16T09:12:00;4.63;;;2.03;;
15595;SDS011;7898;48.658;9.068;2022-10-16T09:14:38;3.33;;;1.60;;
15595;SDS011;7898;48.658;9.068;2022-10-16T09:17:25;3.28;;;1.83;;
15595;SDS011;7898;48.658;9.068;2022-10-16T09:20:12;3.45;;;2.05;;
15595;SDS011;7898;48.658;9.068;2022-10-16T09:22:45;8.20;;;2.80;;
15595;SDS011;7898;48.658;9.068;2022-10-16T09:25:13;5.32;;;2.00;;
15595;SDS011;7898;48.658;9.068;2022-10-16T09:27:42;4.20;;;1.65;;
15595;SDS011;7898;48.658;9.068;2022-10-16T09:30:15;2.03;;;1.38;;
15595;SDS011;7898;48.658;9.068;2022-10-16T09:32:46;2.28;;;1.65;;
15595;SDS011;7898;48.658;9.068;2022-10-16T09:35:16;2.38;;;1.80;;
15595;SDS011;7898;48.658;9.068;2022-10-16T09:37:50;3.30;;;1.73;;
15595;SDS011;7898;48.658;9.068;2022-10-16T09:40:26;3.10;;;1.40;;
15595;SDS011;7898;48.658;9.068;2022-10-16T09:42:57;3.17;;;1.25;;
15595;SDS011;7898;48.658;9.068;2022-10-16T09:45:29;2.15;;;1.50;;
15595;SDS011;7898;48.658;9.068;2022-10-16T09:48:00;1.75;;;1.45;;
15595;SDS011;7898;48.658;9.068;2022-10-16T09:50:38;1.23;;;1.00;;
15595;SDS011;7898;48.658;9.068;2022-10-16T09:53:08;2.33;;;1.40;;
15595;SDS011;7898;48.658;9.068;2022-10-16T09:55:47;2.35;;;1.55;;
15595;SDS011;7898;48.658;9.068;2022-10-16T09:58:15;3.47;;;1.30;;
15595;SDS011;7898;48.658;9.068;2022-10-16T10:00:48;4.53;;;1.30;;
15595;SDS011;7898;48.658;9.068;2022-10-16T10:03:23;2.88;;;1.42;;
15595;SDS011;7898;48.658;9.068;2022-10-16T10:06:05;2.42;;;1.10;;
15595;SDS011;7898;48.658;9.068;2022-10-16T10:08:52;1.30;;;1.10;;
15595;SDS011;7898;48.658;9.068;2022-10-16T10:14:06;1.77;;;1.38;;
15595;SDS011;7898;48.658;9.068;2022-10-16T10:16:41;1.90;;;1.20;;
15595;SDS011;7898;48.658;9.068;2022-10-16T10:19:12;2.85;;;1.70;;
15595;SDS011;7898;48.658;9.068;2022-10-16T10:21:41;3.08;;;1.52;;
15595;SDS011;7898;48.658;9.068;2022-10-16T10:24:09;3.05;;;1.52;;
15595;SDS011;7898;48.658;9.068;2022-10-16T10:26:37;3.72;;;1.35;;
15595;SDS011;7898;48.658;9.068;2022-10-16T10:29:09;6.00;;;1.50;;
15595;SDS011;7898;48.658;9.068;2022-10-16T10:31:45;3.63;;;1.50;;
15595;SDS011;7898;48.658;9.068;2022-10-16T10:34:27;3.17;;;1.90;;
15595;SDS011;7898;48.658;9.068;2022-10-16T10:37:10;1.45;;;1.17;;
15595;SDS011;7898;48.658;9.068;2022-10-16T10:39:51;2.08;;;1.40;;
15595;SDS011;7898;48.658;9.068;2022-10-16T10:42:27;3.03;;;1.50;;
15595;SDS011;7898;48.658;9.068;2022-10-16T10:45:04;2.15;;;1.63;;
15595;SDS011;7898;48.658;9.068;2022-10-16T10:47:46;3.45;;;1.40;;
15595;SDS011;7898;48.658;9.068;2022-10-16T10:50:22;3.13;;;1.30;;
15595;SDS011;7898;48.658;9.068;2022-10-16T10:52:56;3.67;;;1.30;;
15595;SDS011;7898;48.658;9.068;2022-10-16T10:55:31;3.05;;;1.05;;
15595;SDS011;7898;48.658;9.068;2022-10-16T10:58:19;2.67;;;1.17;;
15595;SDS011;7898;48.658;9.068;2022-10-16T11:01:06;4.35;;;1.52;;
15595;SDS011;7898;48.658;9.068;2022-10-16T11:06:31;3.47;;;1.50;;
15595;SDS011;7898;48.658;9.068;2022-10-16T11:09:02;4.18;;;1.60;;
15595;SDS011;7898;48.658;9.068;2022-10-16T11:11:37;4.28;;;1.38;;
15595;SDS011;7898;48.658;9.068;2022-10-16T11:14:10;3.42;;;1.58;;
15595;SDS011;7898;48.658;9.068;2022-10-16T11:16:43;1.45;;;1.35;;
15595;SDS011;7898;48.658;9.068;2022-10-16T11:19:20;2.38;;;1.38;;
15595;SDS011;7898;48.658;9.068;2022-10-16T11:21:56;1.33;;;1.23;;
15595;SDS011;7898;48.658;9.068;2022-10-16T11:24:34;3.85;;;1.80;;
15595;SDS011;7898;48.658;9.068;2022-10-16T11:27:08;2.05;;;1.33;;
15595;SDS011;7898;48.658;9.068;2022-10-16T11:29:40;1.67;;;1.35;;
15595;SDS011;7898;48.658;9.068;2022-10-16T11:32:18;1.85;;;1.35;;
15595;SDS011;7898;48.658;9.068;2022-10-16T11:34:50;1.73;;;1.20;;
15595;SDS011;7898;48.658;9.068;2022-10-16T11:37:21;1.33;;;1.20;;
15595;SDS011;7898;48.658;9.068;2022-10-16T11:39:54;2.85;;;1.33;;
15595;SDS011;7898;48.658;9.068;2022-10-16T11:42:26;2.53;;;1.52;;
15595;SDS011;7898;48.658;9.068;2022-10-16T11:45:00;1.77;;;1.40;;
15595;SDS011;7898;48.658;9.068;2022-10-16T11:47:35;2.97;;;1.52;;
15595;SDS011;7898;48.658;9.068;2022-10-16T11:50:10;1.35;;;1.20;;
15595;SDS011;7898;48.658;9.068;2022-10-16T11:52:48;2.47;;;1.88;;
15595;SDS011;7898;48.658;9.068;2022-10-16T11:55:22;1.83;;;1.40;;
15595;SDS011;7898;48.658;9.068;2022-10-16T11:57:57;2.45;;;1.40;;
15595;SDS011;7898;48.658;9.068;2022-10-16T12:00:29;2.20;;;1.50;;
15595;SDS011;7898;48.658;9.068;2022-10-16T12:03:04;2.90;;;1.70;;
15595;SDS011;7898;48.658;9.068;2022-10-16T12:05:49;1.55;;;1.25;;
15595;SDS011;7898;48.658;9.068;2022-10-16T12:08:24;2.55;;;1.50;;
15595;SDS011;7898;48.658;9.068;2022-10-16T12:10:52;2.35;;;1.38;;
15595;SDS011;7898;48.658;9.068;2022-10-16T12:13:30;4.25;;;1.58;;
15595;SDS011;7898;48.658;9.068;2022-10-16T12:16:05;4.30;;;1.60;;
15595;SDS011;7898;48.658;9.068;2022-10-16T12:18:46;1.55;;;1.45;;
15595;SDS011;7898;48.658;9.068;2022-10-16T12:21:14;4.70;;;1.50;;
15595;SDS011;7898;48.658;9.068;2022-10-16T12:23:49;4.75;;;1.60;;
15595;SDS011;7898;48.658;9.068;2022-10-16T12:26:23;1.90;;;1.40;;
15595;SDS011;7898;48.658;9.068;2022-10-16T12:28:52;3.40;;;1.90;;
15595;SDS011;7898;48.658;9.068;2022-10-16T12:31:20;1.83;;;1.60;;
15595;SDS011;7898;48.658;9.068;2022-10-16T12:33:53;4.88;;;1.67;;
15595;SDS011;7898;48.658;9.068;2022-10-16T12:36:27;3.22;;;1.60;;
15595;SDS011;7898;48.658;9.068;2022-10-16T12:38:58;3.38;;;1.42;;
15595;SDS011;7898;48.658;9.068;2022-10-16T12:41:26;4.00;;;1.52;;
15595;SDS011;7898;48.658;9.068;2022-10-16T12:43:55;3.20;;;1.80;;
15595;SDS011;7898;48.658;9.068;2022-10-16T12:46:26;2.13;;;1.58;;
15595;SDS011;7898;48.658;9.068;2022-10-16T12:49:15;3.03;;;1.60;;
15595;SDS011;7898;48.658;9.068;2022-10-16T12:51:49;1.85;;;1.60;;
15595;SDS011;7898;48.658;9.068;2022-10-16T12:54:18;3.15;;;1.70;;
15595;SDS011;7898;48.658;9.068;2022-10-16T12:56:51;4.20;;;1.60;;
15595;SDS011;7898;48.658;9.068;2022-10-16T12:59:33;3.88;;;1.75;;
15595;SDS011;7898;48.658;9.068;2022-10-16T13:02:13;2.83;;;1.45;;
15595;SDS011;7898;48.658;9.068;2022-10-16T13:05:08;3.33;;;1.60;;
15595;SDS011;7898;48.658;9.068;2022-10-16T13:07:53;2.40;;;1.55;;
15595;SDS011;7898;48.658;9.068;2022-10-16T13:10:31;5.47;;;1.60;;
15595;SDS011;7898;48.658;9.068;2022-10-16T13:13:08;3.47;;;1.65;;
15595;SDS011;7898;48.658;9.068;2022-10-16T13:16:02;5.15;;;2.50;;
15595;SDS011;7898;48.658;9.068;2022-10-16T13:18:40;3.47;;;1.88;;
15595;SDS011;7898;48.658;9.068;2022-10-16T13:21:19;2.05;;;1.52;;
15595;SDS011;7898;48.658;9.068;2022-10-16T13:23:57;3.22;;;1.58;;
15595;SDS011;7898;48.658;9.068;2022-10-16T13:26:33;1.95;;;1.67;;
15595;SDS011;7898;48.658;9.068;2022-10-16T13:29:05;3.20;;;1.42;;
15595;SDS011;7898;48.658;9.068;2022-10-16T13:31:32;2.45;;;1.70;;
15595;SDS011;7898;48.658;9.068;2022-10-16T13:33:59;3.70;;;1.65;;
15595;SDS011;7898;48.658;9.068;2022-10-16T13:36:27;2.05;;;1.48;;
15595;SDS011;7898;48.658;9.068;2022-10-16T13:39:06;2.25;;;1.80;;
15595;SDS011;7898;48.658;9.068;2022-10-16T13:41:40;3.58;;;1.60;;
15595;SDS011;7898;48.658;9.068;2022-10-16T13:44:11;2.13;;;1.60;;
15595;SDS011;7898;48.658;9.068;2022-10-16T13:46:41;1.85;;;1.40;;
15595;SDS011;7898;48.658;9.068;2022-10-16T13:49:12;2.90;;;2.00;;
15595;SDS011;7898;48.658;9.068;2022-10-16T13:51:40;2.17;;;1.77;;
15595;SDS011;7898;48.658;9.068;2022-10-16T13:54:09;3.08;;;1.73;;
15595;SDS011;7898;48.658;9.068;2022-10-16T13:56:38;1.60;;;1.50;;
15595;SDS011;7898;48.658;9.068;2022-10-16T13:59:20;2.90;;;1.60;;
15595;SDS011;7898;48.658;9.068;2022-10-16T14:01:49;1.80;;;1.50;;
15595;SDS011;7898;48.658;9.068;2022-10-16T14:04:19;1.75;;;1.48;;
15595;SDS011;7898;48.658;9.068;2022-10-16T14:06:46;3.83;;;1.90;;
15595;SDS011;7898;48.658;9.068;2022-10-16T14:09:18;7.22;;;1.85;;
15595;SDS011;7898;48.658;9.068;2022-10-16T14:11:49;2.40;;;1.50;;
15595;SDS011;7898;48.658;9.068;2022-10-16T14:14:20;3.67;;;1.65;;
15595;SDS011;7898;48.658;9.068;2022-10-16T14:16:48;1.70;;;1.60;;
15595;SDS011;7898;48.658;9.068;2022-10-16T14:19:17;4.93;;;1.60;;
15595;SDS011;7898;48.658;9.068;2022-10-16T14:21:48;3.97;;;1.73;;
15595;SDS011;7898;48.658;9.068;2022-10-16T14:24:22;3.53;;;1.88;;
15595;SDS011;7898;48.658;9.068;2022-10-16T14:26:52;2.13;;;1.90;;
15595;SDS011;7898;48.658;9.068;2022-10-16T14:29:23;2.25;;;1.60;;
15595;SDS011;7898;48.658;9.068;2022-10-16T14:31:56;2.08;;;1.70;;
15595;SDS011;7898;48.658;9.068;2022-10-16T14:34:25;1.90;;;1.70;;
15595;SDS011;7898;48.658;9.068;2022-10-16T14:36:55;2.22;;;1.80;;
15595;SDS011;7898;48.658;9.068;2022-10-16T14:39:23;4.43;;;1.55;;
15595;SDS011;7898;48.658;9.068;2022-10-16T14:41:51;4.18;;;1.88;;
15595;SDS011;7898;48.658;9.068;2022-10-16T14:44:24;5.13;;;1.60;;
15595;SDS011;7898;48.658;9.068;2022-10-16T14:46:55;3.63;;;1.70;;
15595;SDS011;7898;48.658;9.068;2022-10-16T14:49:22;5.35;;;1.60;;
15595;SDS011;7898;48.658;9.068;2022-10-16T14:51:50;3.42;;;1.60;;
15595;SDS011;7898;48.658;9.068;2022-10-16T14:54:18;1.60;;;1.50;;
15595;SDS011;7898;48.658;9.068;2022-10-16T14:56:46;2.88;;;1.90;;
15595;SDS011;7898;48.658;9.068;2022-10-16T14:59:15;3.75;;;1.45;;
15595;SDS011;7898;48.658;9.068;2022-10-16T15:01:46;1.90;;;1.30;;
15595;SDS011;7898;48.658;9.068;2022-10-16T15:04:13;4.60;;;1.60;;
15595;SDS011;7898;48.658;9.068;2022-10-16T15:06:42;3.05;;;2.10;;
15595;SDS011;7898;48.658;9.068;2022-10-16T15:09:09;2.10;;;1.60;;
15595;SDS011;7898;48.658;9.068;2022-10-16T15:11:36;4.53;;;1.45;;
15595;SDS011;7898;48.658;9.068;2022-10-16T15:14:04;3.22;;;1.73;;
15595;SDS011;7898;48.658;9.068;2022-10-16T15:16:32;3.10;;;1.80;;
15595;SDS011;7898;48.658;9.068;2022-10-16T15:19:00;3.72;;;1.55;;
15595;SDS011;7898;48.658;9.068;2022-10-16T15:21:28;7.18;;;1.88;;
15595;SDS011;7898;48.658;9.068;2022-10-16T15:23:56;3.50;;;1.80;;
15595;SDS011;7898;48.658;9.068;2022-10-16T15:26:24;5.40;;;1.98;;
15595;SDS011;7898;48.658;9.068;2022-10-16T15:28:52;3.65;;;1.50;;
15595;SDS011;7898;48.658;9.068;2022-10-16T15:31:20;3.97;;;1.92;;
15595;SDS011;7898;48.658;9.068;2022-10-16T15:33:49;8.30;;;2.17;;